sensor_id;sensor_type;location;lat;lon;timestamp;temperature;humidity
10123;DHT22;5101;49.038;8.710;2024-02-14T00:00:46;5.40;99.90
10123;DHT22;5101;49.038;8.710;2024-02-14T00:03:12;5.50;99.90
10123;DHT22;5101;49.038;8.710;2024-02-14T00:05:37;5.40;99.90
10123;DHT22;5101;49.038;8.710;2024-02-14T00:08:03;5.40;99.90
10123;DHT22;5101;49.038;8.710;2024-02-14T00:10:28;5.40;99.90
10123;DHT22;5101;49.038;8.710;2024-02-14T00:12:54;5.40;99.90
10123;DHT22;5101;49.038;8.710;2024-02-14T00:15:20;5.40;99.90
10123;DHT22;5101;49.038;8.710;2024-02-14T00:17:46;5.40;99.90
10123;DHT22;5101;49.038;8.710;2024-02-14T00:20:12;5.40;99.90
10123;DHT22;5101;49.038;8.710;2024-02-14T00:22:38;5.40;99.90
10123;DHT22;5101;49.038;8.710;2024-02-14T00:25:04;5.50;99.90
10123;DHT22;5101;49.038;8.710;2024-02-14T00:27:30;5.50;99.90
10123;DHT22;5101;49.038;8.710;2024-02-14T00:29:55;5.50;99.90
10123;DHT22;5101;49.038;8.710;2024-02-14T00:32:21;5.50;99.90
10123;DHT22;5101;49.038;8.710;2024-02-14T00:34:47;5.60;99.90
10123;DHT22;5101;49.038;8.710;2024-02-14T00:37:12;5.60;99.90
10123;DHT22;5101;49.038;8.710;2024-02-14T00:39:38;5.60;99.90
10123;DHT22;5101;49.038;8.710;2024-02-14T00:42:04;5.70;99.90
10123;DHT22;5101;49.038;8.710;2024-02-14T00:44:30;5.70;99.90
10123;DHT22;5101;49.038;8.710;2024-02-14T00:46:57;5.80;99.90
10123;DHT22;5101;49.038;8.710;2024-02-14T00:49:25;5.70;99.90
10123;DHT22;5101;49.038;8.710;2024-02-14T00:51:51;5.80;99.90
10123;DHT22;5101;49.038;8.710;2024-02-14T00:54:16;5.90;99.90
10123;DHT22;5101;49.038;8.710;2024-02-14T00:56:42;5.80;99.90
10123;DHT22;5101;49.038;8.710;2024-02-14T00:59:07;5.90;99.90
10123;DHT22;5101;49.038;8.710;2024-02-14T01:01:33;5.90;99.90
10123;DHT22;5101;49.038;8.710;2024-02-14T01:03:58;5.90;99.90
10123;DHT22;5101;49.038;8.710;2024-02-14T01:06:24;5.90;99.90
10123;DHT22;5101;49.038;8.710;2024-02-14T01:08:50;6.00;99.90
10123;DHT22;5101;49.038;8.710;2024-02-14T01:11:15;6.00;99.90
10123;DHT22;5101;49.038;8.710;2024-02-14T01:13:41;6.00;99.90
10123;DHT22;5101;49.038;8.710;2024-02-14T01:16:06;6.00;99.90
10123;DHT22;5101;49.038;8.710;2024-02-14T01:18:33;6.00;99.90
10123;DHT22;5101;49.038;8.710;2024-02-14T01:20:58;6.00;99.90
10123;DHT22;5101;49.038;8.710;2024-02-14T01:23:25;6.00;99.90
10123;DHT22;5101;49.038;8.710;2024-02-14T01:25:51;6.10;99.90
10123;DHT22;5101;49.038;8.710;2024-02-14T01:28:16;6.20;99.90
10123;DHT22;5101;49.038;8.710;2024-02-14T01:30:43;6.10;99.90
10123;DHT22;5101;49.038;8.710;2024-02-14T01:33:08;6.20;99.90
10123;DHT22;5101;49.038;8.710;2024-02-14T01:35:34;6.20;99.90
10123;DHT22;5101;49.038;8.710;2024-02-14T01:37:59;6.20;99.90
10123;DHT22;5101;49.038;8.710;2024-02-14T01:40:26;6.30;99.90
10123;DHT22;5101;49.038;8.710;2024-02-14T01:42:51;6.30;99.90
10123;DHT22;5101;49.038;8.710;2024-02-14T01:45:17;6.30;99.90
10123;DHT22;5101;49.038;8.710;2024-02-14T01:47:43;6.30;99.90
10123;DHT22;5101;49.038;8.710;2024-02-14T01:50:09;6.30;99.90
10123;DHT22;5101;49.038;8.710;2024-02-14T01:52:38;6.40;99.90
10123;DHT22;5101;49.038;8.710;2024-02-14T01:55:05;6.50;99.90
10123;DHT22;5101;49.038;8.710;2024-02-14T01:57:33;6.40;99.90
10123;DHT22;5101;49.038;8.710;2024-02-14T02:00:00;6.50;99.90
10123;DHT22;5101;49.038;8.710;2024-02-14T02:02:29;6.50;99.90
10123;DHT22;5101;49.038;8.710;2024-02-14T02:04:55;6.50;99.90
10123;DHT22;5101;49.038;8.710;2024-02-14T02:07:21;6.60;99.90
10123;DHT22;5101;49.038;8.710;2024-02-14T02:09:46;6.50;99.90
10123;DHT22;5101;49.038;8.710;2024-02-14T02:12:12;6.50;99.90
10123;DHT22;5101;49.038;8.710;2024-02-14T02:14:37;6.50;99.90
10123;DHT22;5101;49.038;8.710;2024-02-14T02:17:06;6.50;99.90
10123;DHT22;5101;49.038;8.710;2024-02-14T02:19:34;6.50;99.90
10123;DHT22;5101;49.038;8.710;2024-02-14T02:22:00;6.50;99.90
10123;DHT22;5101;49.038;8.710;2024-02-14T02:24:26;6.50;99.90
10123;DHT22;5101;49.038;8.710;2024-02-14T02:26:51;6.50;99.90
10123;DHT22;5101;49.038;8.710;2024-02-14T02:29:17;6.50;99.90
10123;DHT22;5101;49.038;8.710;2024-02-14T02:31:45;6.50;99.90
10123;DHT22;5101;49.038;8.710;2024-02-14T02:34:11;6.50;99.90
10123;DHT22;5101;49.038;8.710;2024-02-14T02:36:36;6.50;99.90
10123;DHT22;5101;49.038;8.710;2024-02-14T02:39:04;6.40;99.90
10123;DHT22;5101;49.038;8.710;2024-02-14T02:41:33;6.40;99.90
10123;DHT22;5101;49.038;8.710;2024-02-14T02:43:58;6.40;99.90
10123;DHT22;5101;49.038;8.710;2024-02-14T02:46:24;6.30;99.90
10123;DHT22;5101;49.038;8.710;2024-02-14T02:48:51;6.50;99.90
10123;DHT22;5101;49.038;8.710;2024-02-14T02:51:20;6.30;99.90
10123;DHT22;5101;49.038;8.710;2024-02-14T02:53:46;6.30;99.90
10123;DHT22;5101;49.038;8.710;2024-02-14T02:56:12;6.20;99.90
10123;DHT22;5101;49.038;8.710;2024-02-14T02:58:38;6.10;99.90
10123;DHT22;5101;49.038;8.710;2024-02-14T03:01:08;6.00;99.90
10123;DHT22;5101;49.038;8.710;2024-02-14T03:03:34;6.00;99.90
10123;DHT22;5101;49.038;8.710;2024-02-14T03:06:00;6.10;99.90
10123;DHT22;5101;49.038;8.710;2024-02-14T03:08:29;6.00;99.90
10123;DHT22;5101;49.038;8.710;2024-02-14T03:11:01;6.00;99.90
10123;DHT22;5101;49.038;8.710;2024-02-14T03:13:27;6.00;99.90
10123;DHT22;5101;49.038;8.710;2024-02-14T03:15:53;6.00;99.90
10123;DHT22;5101;49.038;8.710;2024-02-14T03:18:22;6.00;99.90
10123;DHT22;5101;49.038;8.710;2024-02-14T03:20:48;6.10;99.90
10123;DHT22;5101;49.038;8.710;2024-02-14T03:23:15;6.10;99.90
10123;DHT22;5101;49.038;8.710;2024-02-14T03:25:41;6.00;99.90
10123;DHT22;5101;49.038;8.710;2024-02-14T03:28:07;5.90;99.90
10123;DHT22;5101;49.038;8.710;2024-02-14T03:30:34;5.90;99.90
10123;DHT22;5101;49.038;8.710;2024-02-14T03:33:01;6.00;99.90
10123;DHT22;5101;49.038;8.710;2024-02-14T03:35:27;6.10;99.90
10123;DHT22;5101;49.038;8.710;2024-02-14T03:37:52;6.00;99.90
10123;DHT22;5101;49.038;8.710;2024-02-14T03:40:18;6.00;99.90
10123;DHT22;5101;49.038;8.710;2024-02-14T03:42:47;6.10;99.90
10123;DHT22;5101;49.038;8.710;2024-02-14T03:45:13;6.10;99.90
10123;DHT22;5101;49.038;8.710;2024-02-14T03:47:39;6.10;99.90
10123;DHT22;5101;49.038;8.710;2024-02-14T03:50:05;6.10;99.90
10123;DHT22;5101;49.038;8.710;2024-02-14T03:52:32;6.20;99.90
10123;DHT22;5101;49.038;8.710;2024-02-14T03:54:59;6.20;99.90
10123;DHT22;5101;49.038;8.710;2024-02-14T03:57:25;6.20;99.90
10123;DHT22;5101;49.038;8.710;2024-02-14T03:59:51;6.20;99.90
10123;DHT22;5101;49.038;8.710;2024-02-14T04:02:17;6.20;99.90
10123;DHT22;5101;49.038;8.710;2024-02-14T04:04:44;6.20;99.90
10123;DHT22;5101;49.038;8.710;2024-02-14T04:07:12;6.20;99.90
10123;DHT22;5101;49.038;8.710;2024-02-14T04:09:37;6.10;99.90
10123;DHT22;5101;49.038;8.710;2024-02-14T04:12:04;6.30;99.90
10123;DHT22;5101;49.038;8.710;2024-02-14T04:14:30;6.10;99.90
10123;DHT22;5101;49.038;8.710;2024-02-14T04:16:55;6.20;99.90
10123;DHT22;5101;49.038;8.710;2024-02-14T04:19:21;6.10;99.90
10123;DHT22;5101;49.038;8.710;2024-02-14T04:21:46;6.20;99.90
10123;DHT22;5101;49.038;8.710;2024-02-14T04:24:12;6.20;99.90
10123;DHT22;5101;49.038;8.710;2024-02-14T04:26:38;6.30;99.90
10123;DHT22;5101;49.038;8.710;2024-02-14T04:29:03;6.30;99.90
10123;DHT22;5101;49.038;8.710;2024-02-14T04:31:29;6.50;99.90
10123;DHT22;5101;49.038;8.710;2024-02-14T04:33:55;6.30;99.90
10123;DHT22;5101;49.038;8.710;2024-02-14T04:36:21;6.40;99.90
10123;DHT22;5101;49.038;8.710;2024-02-14T04:38:50;6.40;99.90
10123;DHT22;5101;49.038;8.710;2024-02-14T04:41:16;6.40;99.90
10123;DHT22;5101;49.038;8.710;2024-02-14T04:43:42;6.50;99.90
10123;DHT22;5101;49.038;8.710;2024-02-14T04:46:07;6.50;99.90
10123;DHT22;5101;49.038;8.710;2024-02-14T04:48:34;6.50;99.90
10123;DHT22;5101;49.038;8.710;2024-02-14T04:51:00;6.50;99.90
10123;DHT22;5101;49.038;8.710;2024-02-14T04:53:25;6.50;99.90
10123;DHT22;5101;49.038;8.710;2024-02-14T04:55:51;6.60;99.90
10123;DHT22;5101;49.038;8.710;2024-02-14T04:58:16;6.70;99.90
10123;DHT22;5101;49.038;8.710;2024-02-14T05:00:42;6.60;99.90
10123;DHT22;5101;49.038;8.710;2024-02-14T05:03:07;6.60;99.90
10123;DHT22;5101;49.038;8.710;2024-02-14T05:05:35;6.60;99.90
10123;DHT22;5101;49.038;8.710;2024-02-14T05:08:01;6.70;99.90
10123;DHT22;5101;49.038;8.710;2024-02-14T05:10:27;6.70;99.90
10123;DHT22;5101;49.038;8.710;2024-02-14T05:12:54;6.70;99.90
10123;DHT22;5101;49.038;8.710;2024-02-14T05:15:19;6.70;99.90
10123;DHT22;5101;49.038;8.710;2024-02-14T05:17:45;6.70;99.90
10123;DHT22;5101;49.038;8.710;2024-02-14T05:20:11;6.80;99.90
10123;DHT22;5101;49.038;8.710;2024-02-14T05:22:37;6.80;99.90
10123;DHT22;5101;49.038;8.710;2024-02-14T05:25:03;6.80;99.90
10123;DHT22;5101;49.038;8.710;2024-02-14T05:27:30;6.80;99.90
10123;DHT22;5101;49.038;8.710;2024-02-14T05:29:55;6.80;99.90
10123;DHT22;5101;49.038;8.710;2024-02-14T05:32:21;6.80;99.90
10123;DHT22;5101;49.038;8.710;2024-02-14T05:34:46;6.80;99.90
10123;DHT22;5101;49.038;8.710;2024-02-14T05:37:12;7.00;99.90
10123;DHT22;5101;49.038;8.710;2024-02-14T05:39:38;6.90;99.90
10123;DHT22;5101;49.038;8.710;2024-02-14T05:42:04;6.90;99.90
10123;DHT22;5101;49.038;8.710;2024-02-14T05:44:30;6.90;99.90
10123;DHT22;5101;49.038;8.710;2024-02-14T05:46:56;6.90;99.90
10123;DHT22;5101;49.038;8.710;2024-02-14T05:49:22;6.90;99.90
10123;DHT22;5101;49.038;8.710;2024-02-14T05:51:48;6.90;99.90
10123;DHT22;5101;49.038;8.710;2024-02-14T05:54:13;6.90;99.90
10123;DHT22;5101;49.038;8.710;2024-02-14T05:56:39;6.90;99.90
10123;DHT22;5101;49.038;8.710;2024-02-14T05:59:04;7.00;99.90
10123;DHT22;5101;49.038;8.710;2024-02-14T06:01:30;6.90;99.90
10123;DHT22;5101;49.038;8.710;2024-02-14T06:03:55;6.90;99.90
10123;DHT22;5101;49.038;8.710;2024-02-14T06:06:21;6.90;99.90
10123;DHT22;5101;49.038;8.710;2024-02-14T06:08:46;6.90;99.90
10123;DHT22;5101;49.038;8.710;2024-02-14T06:11:12;7.00;99.90
10123;DHT22;5101;49.038;8.710;2024-02-14T06:13:39;6.90;99.90
10123;DHT22;5101;49.038;8.710;2024-02-14T06:16:05;6.90;99.90
10123;DHT22;5101;49.038;8.710;2024-02-14T06:18:31;6.90;99.90
10123;DHT22;5101;49.038;8.710;2024-02-14T06:20:57;6.90;99.90
10123;DHT22;5101;49.038;8.710;2024-02-14T06:23:22;6.90;99.90
10123;DHT22;5101;49.038;8.710;2024-02-14T06:25:47;6.90;99.90
10123;DHT22;5101;49.038;8.710;2024-02-14T06:28:13;6.90;99.90
10123;DHT22;5101;49.038;8.710;2024-02-14T06:30:38;6.90;99.90
10123;DHT22;5101;49.038;8.710;2024-02-14T06:33:04;7.00;99.90
10123;DHT22;5101;49.038;8.710;2024-02-14T06:35:30;6.90;99.90
10123;DHT22;5101;49.038;8.710;2024-02-14T06:37:55;6.90;99.90
10123;DHT22;5101;49.038;8.710;2024-02-14T06:40:21;6.90;99.90
10123;DHT22;5101;49.038;8.710;2024-02-14T06:42:47;6.90;99.90
10123;DHT22;5101;49.038;8.710;2024-02-14T06:45:16;6.90;99.90
10123;DHT22;5101;49.038;8.710;2024-02-14T06:47:42;7.00;99.90
10123;DHT22;5101;49.038;8.710;2024-02-14T06:50:08;7.00;99.90
10123;DHT22;5101;49.038;8.710;2024-02-14T06:52:34;7.00;99.90
10123;DHT22;5101;49.038;8.710;2024-02-14T06:54:59;7.00;99.90
10123;DHT22;5101;49.038;8.710;2024-02-14T06:57:25;7.00;99.90
10123;DHT22;5101;49.038;8.710;2024-02-14T06:59:51;7.10;99.90
10123;DHT22;5101;49.038;8.710;2024-02-14T07:02:17;7.10;99.90
10123;DHT22;5101;49.038;8.710;2024-02-14T07:04:42;7.20;99.90
10123;DHT22;5101;49.038;8.710;2024-02-14T07:07:08;7.20;99.90
10123;DHT22;5101;49.038;8.710;2024-02-14T07:09:33;7.20;99.90
10123;DHT22;5101;49.038;8.710;2024-02-14T07:12:01;7.20;99.90
10123;DHT22;5101;49.038;8.710;2024-02-14T07:14:27;7.20;99.90
10123;DHT22;5101;49.038;8.710;2024-02-14T07:16:52;7.10;99.90
10123;DHT22;5101;49.038;8.710;2024-02-14T07:19:18;7.10;99.90
10123;DHT22;5101;49.038;8.710;2024-02-14T07:21:43;7.10;99.90
10123;DHT22;5101;49.038;8.710;2024-02-14T07:24:09;7.20;99.90
10123;DHT22;5101;49.038;8.710;2024-02-14T07:26:35;7.20;99.90
10123;DHT22;5101;49.038;8.710;2024-02-14T07:29:00;7.40;99.90
10123;DHT22;5101;49.038;8.710;2024-02-14T07:31:29;7.50;99.90
10123;DHT22;5101;49.038;8.710;2024-02-14T07:33:59;7.40;99.90
10123;DHT22;5101;49.038;8.710;2024-02-14T07:36:24;7.40;99.90
10123;DHT22;5101;49.038;8.710;2024-02-14T07:38:50;7.50;99.90
10123;DHT22;5101;49.038;8.710;2024-02-14T07:41:15;7.40;99.90
10123;DHT22;5101;49.038;8.710;2024-02-14T07:43:41;7.40;99.90
10123;DHT22;5101;49.038;8.710;2024-02-14T07:46:06;7.50;99.90
10123;DHT22;5101;49.038;8.710;2024-02-14T07:48:33;7.50;99.90
10123;DHT22;5101;49.038;8.710;2024-02-14T07:50:58;7.60;99.90
10123;DHT22;5101;49.038;8.710;2024-02-14T07:53:25;7.60;99.90
10123;DHT22;5101;49.038;8.710;2024-02-14T07:55:51;7.70;99.90
10123;DHT22;5101;49.038;8.710;2024-02-14T07:58:16;7.80;99.90
10123;DHT22;5101;49.038;8.710;2024-02-14T08:00:42;7.70;99.90
10123;DHT22;5101;49.038;8.710;2024-02-14T08:03:07;7.80;99.90
10123;DHT22;5101;49.038;8.710;2024-02-14T08:05:33;7.80;99.90
10123;DHT22;5101;49.038;8.710;2024-02-14T08:07:59;7.80;99.90
10123;DHT22;5101;49.038;8.710;2024-02-14T08:10:24;7.90;99.90
10123;DHT22;5101;49.038;8.710;2024-02-14T08:12:50;7.90;99.90
10123;DHT22;5101;49.038;8.710;2024-02-14T08:15:15;7.90;99.90
10123;DHT22;5101;49.038;8.710;2024-02-14T08:17:41;7.90;99.90
10123;DHT22;5101;49.038;8.710;2024-02-14T08:20:07;8.00;99.90
10123;DHT22;5101;49.038;8.710;2024-02-14T08:22:32;8.00;99.90
10123;DHT22;5101;49.038;8.710;2024-02-14T08:24:59;8.00;99.90
10123;DHT22;5101;49.038;8.710;2024-02-14T08:27:24;8.10;99.90
10123;DHT22;5101;49.038;8.710;2024-02-14T08:29:51;8.10;99.90
10123;DHT22;5101;49.038;8.710;2024-02-14T08:32:16;8.10;99.90
10123;DHT22;5101;49.038;8.710;2024-02-14T08:34:42;8.20;99.90
10123;DHT22;5101;49.038;8.710;2024-02-14T08:37:07;8.20;99.90
10123;DHT22;5101;49.038;8.710;2024-02-14T08:39:33;8.30;99.90
10123;DHT22;5101;49.038;8.710;2024-02-14T08:41:59;8.30;99.90
10123;DHT22;5101;49.038;8.710;2024-02-14T08:44:27;8.40;99.90
10123;DHT22;5101;49.038;8.710;2024-02-14T08:46:52;8.40;99.90
10123;DHT22;5101;49.038;8.710;2024-02-14T08:49:18;8.50;99.90
10123;DHT22;5101;49.038;8.710;2024-02-14T08:51:44;8.50;99.90
10123;DHT22;5101;49.038;8.710;2024-02-14T08:54:11;8.60;99.90
10123;DHT22;5101;49.038;8.710;2024-02-14T08:56:37;8.60;99.90
10123;DHT22;5101;49.038;8.710;2024-02-14T08:59:03;8.70;99.90
10123;DHT22;5101;49.038;8.710;2024-02-14T09:01:30;8.70;99.90
10123;DHT22;5101;49.038;8.710;2024-02-14T09:03:56;8.80;99.90
10123;DHT22;5101;49.038;8.710;2024-02-14T09:06:21;8.80;99.90
10123;DHT22;5101;49.038;8.710;2024-02-14T09:08:47;8.80;99.90
10123;DHT22;5101;49.038;8.710;2024-02-14T09:11:13;8.90;99.90
10123;DHT22;5101;49.038;8.710;2024-02-14T09:13:39;9.00;99.90
10123;DHT22;5101;49.038;8.710;2024-02-14T09:16:10;9.00;99.90
10123;DHT22;5101;49.038;8.710;2024-02-14T09:18:37;9.10;99.90
10123;DHT22;5101;49.038;8.710;2024-02-14T09:21:03;9.20;99.90
10123;DHT22;5101;49.038;8.710;2024-02-14T09:23:31;9.20;99.90
10123;DHT22;5101;49.038;8.710;2024-02-14T09:25:58;9.30;99.70
10123;DHT22;5101;49.038;8.710;2024-02-14T09:28:24;9.30;99.40
10123;DHT22;5101;49.038;8.710;2024-02-14T09:30:50;9.40;99.20
10123;DHT22;5101;49.038;8.710;2024-02-14T09:33:16;9.40;99.00
10123;DHT22;5101;49.038;8.710;2024-02-14T09:35:41;9.50;98.90
10123;DHT22;5101;49.038;8.710;2024-02-14T09:38:10;9.50;98.80
10123;DHT22;5101;49.038;8.710;2024-02-14T09:40:38;9.60;98.80
10123;DHT22;5101;49.038;8.710;2024-02-14T09:43:12;9.60;98.70
10123;DHT22;5101;49.038;8.710;2024-02-14T09:45:42;9.70;98.60
10123;DHT22;5101;49.038;8.710;2024-02-14T09:48:09;9.70;98.60
10123;DHT22;5101;49.038;8.710;2024-02-14T09:50:36;9.80;98.60
10123;DHT22;5101;49.038;8.710;2024-02-14T09:53:02;9.90;98.60
10123;DHT22;5101;49.038;8.710;2024-02-14T09:55:28;10.00;98.10
10123;DHT22;5101;49.038;8.710;2024-02-14T09:57:54;10.00;98.10
10123;DHT22;5101;49.038;8.710;2024-02-14T10:00:20;10.10;98.10
10123;DHT22;5101;49.038;8.710;2024-02-14T10:02:46;10.20;98.10
10123;DHT22;5101;49.038;8.710;2024-02-14T10:05:12;10.30;98.10
10123;DHT22;5101;49.038;8.710;2024-02-14T10:07:41;10.40;98.10
10123;DHT22;5101;49.038;8.710;2024-02-14T10:10:07;10.50;98.00
10123;DHT22;5101;49.038;8.710;2024-02-14T10:12:32;10.70;97.80
10123;DHT22;5101;49.038;8.710;2024-02-14T10:14:58;10.70;97.50
10123;DHT22;5101;49.038;8.710;2024-02-14T10:17:24;10.80;97.30
10123;DHT22;5101;49.038;8.710;2024-02-14T10:20:00;10.90;97.10
10123;DHT22;5101;49.038;8.710;2024-02-14T10:22:37;11.00;97.00
10123;DHT22;5101;49.038;8.710;2024-02-14T10:25:04;11.20;97.00
10123;DHT22;5101;49.038;8.710;2024-02-14T10:27:37;11.30;97.20
10123;DHT22;5101;49.038;8.710;2024-02-14T10:30:08;11.50;97.30
10123;DHT22;5101;49.038;8.710;2024-02-14T10:32:37;11.60;97.20
10123;DHT22;5101;49.038;8.710;2024-02-14T10:35:07;11.70;97.20
10123;DHT22;5101;49.038;8.710;2024-02-14T10:37:39;11.80;97.10
10123;DHT22;5101;49.038;8.710;2024-02-14T10:40:06;11.90;97.30
10123;DHT22;5101;49.038;8.710;2024-02-14T10:42:32;12.00;97.40
10123;DHT22;5101;49.038;8.710;2024-02-14T10:45:02;12.10;97.60
10123;DHT22;5101;49.038;8.710;2024-02-14T10:47:39;12.20;97.80
10123;DHT22;5101;49.038;8.710;2024-02-14T10:50:07;12.30;97.80
10123;DHT22;5101;49.038;8.710;2024-02-14T10:52:36;12.30;97.80
10123;DHT22;5101;49.038;8.710;2024-02-14T10:55:03;12.40;97.60
10123;DHT22;5101;49.038;8.710;2024-02-14T10:57:30;12.50;97.60
10123;DHT22;5101;49.038;8.710;2024-02-14T10:59:59;12.50;97.50
10123;DHT22;5101;49.038;8.710;2024-02-14T11:02:26;12.50;97.70
10123;DHT22;5101;49.038;8.710;2024-02-14T11:04:58;12.60;97.40
10123;DHT22;5101;49.038;8.710;2024-02-14T11:07:27;12.70;97.30
10123;DHT22;5101;49.038;8.710;2024-02-14T11:12:33;12.80;96.80
10123;DHT22;5101;49.038;8.710;2024-02-14T11:15:00;12.80;96.70
10123;DHT22;5101;49.038;8.710;2024-02-14T11:17:26;12.90;96.40
10123;DHT22;5101;49.038;8.710;2024-02-14T11:19:53;12.90;96.30
10123;DHT22;5101;49.038;8.710;2024-02-14T11:22:19;12.90;96.20
10123;DHT22;5101;49.038;8.710;2024-02-14T11:24:48;12.90;96.10
10123;DHT22;5101;49.038;8.710;2024-02-14T11:27:14;13.00;96.00
10123;DHT22;5101;49.038;8.710;2024-02-14T11:29:52;13.00;95.80
10123;DHT22;5101;49.038;8.710;2024-02-14T11:32:18;13.10;95.70
10123;DHT22;5101;49.038;8.710;2024-02-14T11:34:52;13.20;95.60
10123;DHT22;5101;49.038;8.710;2024-02-14T11:37:19;13.20;95.40
10123;DHT22;5101;49.038;8.710;2024-02-14T11:39:46;13.30;95.30
10123;DHT22;5101;49.038;8.710;2024-02-14T11:42:12;13.30;95.00
10123;DHT22;5101;49.038;8.710;2024-02-14T11:44:39;13.40;94.90
10123;DHT22;5101;49.038;8.710;2024-02-14T11:47:09;13.50;94.80
10123;DHT22;5101;49.038;8.710;2024-02-14T11:49:35;13.60;94.70
10123;DHT22;5101;49.038;8.710;2024-02-14T11:52:01;13.50;94.50
10123;DHT22;5101;49.038;8.710;2024-02-14T11:54:27;13.60;94.70
10123;DHT22;5101;49.038;8.710;2024-02-14T11:56:53;13.70;94.40
10123;DHT22;5101;49.038;8.710;2024-02-14T11:59:18;13.80;94.30
10123;DHT22;5101;49.038;8.710;2024-02-14T12:01:45;13.80;94.30
10123;DHT22;5101;49.038;8.710;2024-02-14T12:04:12;14.00;94.20
10123;DHT22;5101;49.038;8.710;2024-02-14T12:06:39;14.00;93.90
10123;DHT22;5101;49.038;8.710;2024-02-14T12:09:07;14.10;93.80
10123;DHT22;5101;49.038;8.710;2024-02-14T12:11:38;14.20;93.60
10123;DHT22;5101;49.038;8.710;2024-02-14T12:14:06;14.30;93.50
10123;DHT22;5101;49.038;8.710;2024-02-14T12:16:31;14.30;93.30
10123;DHT22;5101;49.038;8.710;2024-02-14T12:19:05;14.30;93.30
10123;DHT22;5101;49.038;8.710;2024-02-14T12:21:38;14.40;93.30
10123;DHT22;5101;49.038;8.710;2024-02-14T12:24:14;14.50;93.10
10123;DHT22;5101;49.038;8.710;2024-02-14T12:26:41;14.50;93.00
10123;DHT22;5101;49.038;8.710;2024-02-14T12:29:07;14.50;93.10
10123;DHT22;5101;49.038;8.710;2024-02-14T12:31:34;14.60;93.10
10123;DHT22;5101;49.038;8.710;2024-02-14T12:34:00;14.70;93.10
10123;DHT22;5101;49.038;8.710;2024-02-14T12:36:31;14.70;93.10
10123;DHT22;5101;49.038;8.710;2024-02-14T12:38:58;14.80;93.10
10123;DHT22;5101;49.038;8.710;2024-02-14T12:41:24;14.90;93.10
10123;DHT22;5101;49.038;8.710;2024-02-14T12:43:52;14.90;93.10
10123;DHT22;5101;49.038;8.710;2024-02-14T12:46:17;15.10;93.00
10123;DHT22;5101;49.038;8.710;2024-02-14T12:48:43;15.20;92.90
10123;DHT22;5101;49.038;8.710;2024-02-14T12:51:10;15.30;92.80
10123;DHT22;5101;49.038;8.710;2024-02-14T12:53:35;15.50;92.70
10123;DHT22;5101;49.038;8.710;2024-02-14T12:56:01;15.50;92.50
10123;DHT22;5101;49.038;8.710;2024-02-14T12:58:27;15.70;92.30
10123;DHT22;5101;49.038;8.710;2024-02-14T13:00:53;15.70;91.80
10123;DHT22;5101;49.038;8.710;2024-02-14T13:03:19;15.70;91.70
10123;DHT22;5101;49.038;8.710;2024-02-14T13:05:45;15.60;91.70
10123;DHT22;5101;49.038;8.710;2024-02-14T13:08:12;15.60;91.70
10123;DHT22;5101;49.038;8.710;2024-02-14T13:10:38;15.60;91.80
10123;DHT22;5101;49.038;8.710;2024-02-14T13:13:03;15.70;91.70
10123;DHT22;5101;49.038;8.710;2024-02-14T13:15:30;15.60;91.70
10123;DHT22;5101;49.038;8.710;2024-02-14T13:17:55;15.70;91.80
10123;DHT22;5101;49.038;8.710;2024-02-14T13:20:23;15.70;91.80
10123;DHT22;5101;49.038;8.710;2024-02-14T13:22:49;15.60;91.90
10123;DHT22;5101;49.038;8.710;2024-02-14T13:25:14;15.60;91.90
10123;DHT22;5101;49.038;8.710;2024-02-14T13:27:40;15.60;91.90
10123;DHT22;5101;49.038;8.710;2024-02-14T13:30:06;15.60;91.80
10123;DHT22;5101;49.038;8.710;2024-02-14T13:32:32;15.60;91.80
10123;DHT22;5101;49.038;8.710;2024-02-14T13:34:58;15.50;91.70
10123;DHT22;5101;49.038;8.710;2024-02-14T13:37:24;15.50;91.80
10123;DHT22;5101;49.038;8.710;2024-02-14T13:39:50;15.40;91.80
10123;DHT22;5101;49.038;8.710;2024-02-14T13:42:16;15.40;91.90
10123;DHT22;5101;49.038;8.710;2024-02-14T13:44:41;15.30;92.00
10123;DHT22;5101;49.038;8.710;2024-02-14T13:47:07;15.20;92.00
10123;DHT22;5101;49.038;8.710;2024-02-14T13:49:33;15.20;92.10
10123;DHT22;5101;49.038;8.710;2024-02-14T13:51:58;15.20;92.20
10123;DHT22;5101;49.038;8.710;2024-02-14T13:54:24;15.10;92.30
10123;DHT22;5101;49.038;8.710;2024-02-14T13:56:50;15.00;92.40
10123;DHT22;5101;49.038;8.710;2024-02-14T13:59:16;15.10;92.50
10123;DHT22;5101;49.038;8.710;2024-02-14T14:01:42;15.10;92.50
10123;DHT22;5101;49.038;8.710;2024-02-14T14:04:07;15.20;92.50
10123;DHT22;5101;49.038;8.710;2024-02-14T14:06:33;15.10;92.50
10123;DHT22;5101;49.038;8.710;2024-02-14T14:08:59;15.00;92.40
10123;DHT22;5101;49.038;8.710;2024-02-14T14:11:25;15.00;92.50
10123;DHT22;5101;49.038;8.710;2024-02-14T14:13:50;14.90;92.70
10123;DHT22;5101;49.038;8.710;2024-02-14T14:16:16;14.80;92.80
10123;DHT22;5101;49.038;8.710;2024-02-14T14:18:42;14.80;92.90
10123;DHT22;5101;49.038;8.710;2024-02-14T14:21:08;14.80;93.00
10123;DHT22;5101;49.038;8.710;2024-02-14T14:23:33;14.80;93.10
10123;DHT22;5101;49.038;8.710;2024-02-14T14:25:59;14.70;93.20
10123;DHT22;5101;49.038;8.710;2024-02-14T14:28:26;14.70;93.30
10123;DHT22;5101;49.038;8.710;2024-02-14T14:30:51;14.70;93.50
10123;DHT22;5101;49.038;8.710;2024-02-14T14:33:19;14.70;93.60
10123;DHT22;5101;49.038;8.710;2024-02-14T14:35:44;14.70;93.60
10123;DHT22;5101;49.038;8.710;2024-02-14T14:38:10;14.60;93.60
10123;DHT22;5101;49.038;8.710;2024-02-14T14:40:36;14.70;93.80
10123;DHT22;5101;49.038;8.710;2024-02-14T14:43:05;14.70;93.90
10123;DHT22;5101;49.038;8.710;2024-02-14T14:45:32;14.70;93.90
10123;DHT22;5101;49.038;8.710;2024-02-14T14:47:58;14.70;94.00
10123;DHT22;5101;49.038;8.710;2024-02-14T14:50:23;14.60;94.00
10123;DHT22;5101;49.038;8.710;2024-02-14T14:52:51;14.60;94.10
10123;DHT22;5101;49.038;8.710;2024-02-14T14:55:17;14.50;94.20
10123;DHT22;5101;49.038;8.710;2024-02-14T14:57:43;14.50;94.30
10123;DHT22;5101;49.038;8.710;2024-02-14T15:00:10;14.50;94.40
10123;DHT22;5101;49.038;8.710;2024-02-14T15:02:38;14.50;94.40
10123;DHT22;5101;49.038;8.710;2024-02-14T15:05:05;14.60;94.50
10123;DHT22;5101;49.038;8.710;2024-02-14T15:07:31;14.60;94.50
10123;DHT22;5101;49.038;8.710;2024-02-14T15:09:56;14.60;94.50
10123;DHT22;5101;49.038;8.710;2024-02-14T15:12:22;14.60;94.50
10123;DHT22;5101;49.038;8.710;2024-02-14T15:14:51;14.60;94.80
10123;DHT22;5101;49.038;8.710;2024-02-14T15:17:16;14.70;94.60
10123;DHT22;5101;49.038;8.710;2024-02-14T15:19:42;14.60;94.50
10123;DHT22;5101;49.038;8.710;2024-02-14T15:22:07;14.60;94.60
10123;DHT22;5101;49.038;8.710;2024-02-14T15:24:33;14.60;94.60
10123;DHT22;5101;49.038;8.710;2024-02-14T15:27:01;14.60;94.60
10123;DHT22;5101;49.038;8.710;2024-02-14T15:29:28;14.60;94.70
10123;DHT22;5101;49.038;8.710;2024-02-14T15:32:12;14.60;94.90
10123;DHT22;5101;49.038;8.710;2024-02-14T15:34:56;14.60;94.70
10123;DHT22;5101;49.038;8.710;2024-02-14T15:37:22;14.50;94.90
10123;DHT22;5101;49.038;8.710;2024-02-14T15:39:48;14.50;95.00
10123;DHT22;5101;49.038;8.710;2024-02-14T15:42:13;14.50;95.10
10123;DHT22;5101;49.038;8.710;2024-02-14T15:44:39;14.40;95.20
10123;DHT22;5101;49.038;8.710;2024-02-14T15:47:04;14.40;95.30
10123;DHT22;5101;49.038;8.710;2024-02-14T15:49:30;14.40;95.40
10123;DHT22;5101;49.038;8.710;2024-02-14T15:51:55;14.40;95.60